sensor_id;sensor_type;location;lat;lon;timestamp;P1;durP1;ratioP1;P2;durP2;ratioP2
11037;SDS011;5572;49.540;11.932;2023-04-03T00:01:48;4.33;;;4.03;;
11037;SDS011;5572;49.540;11.932;2023-04-03T00:04:15;4.57;;;4.23;;
11037;SDS011;5572;49.540;11.932;2023-04-03T00:06:41;3.90;;;3.70;;
11037;SDS011;5572;49.540;11.932;2023-04-03T00:09:09;4.03;;;3.83;;
11037;SDS011;5572;49.540;11.932;2023-04-03T00:11:36;3.90;;;3.60;;
11037;SDS011;5572;49.540;11.932;2023-04-03T00:14:02;4.30;;;4.10;;
11037;SDS011;5572;49.540;11.932;2023-04-03T00:16:29;4.13;;;3.83;;
11037;SDS011;5572;49.540;11.932;2023-04-03T00:18:55;3.80;;;3.60;;
11037;SDS011;5572;49.540;11.932;2023-04-03T00:21:22;4.07;;;3.87;;
11037;SDS011;5572;49.540;11.932;2023-04-03T00:23:48;4.13;;;3.83;;
11037;SDS011;5572;49.540;11.932;2023-04-03T00:26:16;4.17;;;3.53;;
11037;SDS011;5572;49.540;11.932;2023-04-03T00:28:43;3.80;;;3.60;;
11037;SDS011;5572;49.540;11.932;2023-04-03T00:31:09;4.30;;;3.90;;
11037;SDS011;5572;49.540;11.932;2023-04-03T00:33:36;4.30;;;4.00;;
11037;SDS011;5572;49.540;11.932;2023-04-03T00:36:05;4.10;;;3.70;;
11037;SDS011;5572;49.540;11.932;2023-04-03T00:38:32;3.77;;;3.57;;
11037;SDS011;5572;49.540;11.932;2023-04-03T00:40:59;4.60;;;4.30;;
11037;SDS011;5572;49.540;11.932;2023-04-03T00:43:27;4.20;;;3.90;;
11037;SDS011;5572;49.540;11.932;2023-04-03T00:45:54;3.83;;;3.63;;
11037;SDS011;5572;49.540;11.932;2023-04-03T00:48:22;4.60;;;4.30;;
11037;SDS011;5572;49.540;11.932;2023-04-03T00:50:52;4.03;;;3.73;;
11037;SDS011;5572;49.540;11.932;2023-04-03T00:53:21;4.00;;;3.70;;
11037;SDS011;5572;49.540;11.932;2023-04-03T00:55:51;3.83;;;3.63;;
11037;SDS011;5572;49.540;11.932;2023-04-03T00:58:20;3.80;;;3.60;;
11037;SDS011;5572;49.540;11.932;2023-04-03T01:00:55;4.17;;;3.43;;
11037;SDS011;5572;49.540;11.932;2023-04-03T01:03:24;4.30;;;3.97;;
11037;SDS011;5572;49.540;11.932;2023-04-03T01:05:51;3.50;;;3.40;;
11037;SDS011;5572;49.540;11.932;2023-04-03T01:08:17;4.80;;;3.97;;
11037;SDS011;5572;49.540;11.932;2023-04-03T01:10:44;3.73;;;3.53;;
11037;SDS011;5572;49.540;11.932;2023-04-03T01:13:18;3.90;;;3.60;;
11037;SDS011;5572;49.540;11.932;2023-04-03T01:15:48;3.73;;;3.53;;
11037;SDS011;5572;49.540;11.932;2023-04-03T01:18:16;4.33;;;4.03;;
11037;SDS011;5572;49.540;11.932;2023-04-03T01:20:47;5.53;;;4.37;;
11037;SDS011;5572;49.540;11.932;2023-04-03T01:23:36;3.97;;;3.67;;
11037;SDS011;5572;49.540;11.932;2023-04-03T01:26:18;3.70;;;3.50;;
11037;SDS011;5572;49.540;11.932;2023-04-03T01:28:45;4.07;;;3.70;;
11037;SDS011;5572;49.540;11.932;2023-04-03T01:31:14;5.80;;;3.77;;
11037;SDS011;5572;49.540;11.932;2023-04-03T01:33:48;3.70;;;3.50;;
11037;SDS011;5572;49.540;11.932;2023-04-03T01:36:16;4.67;;;3.40;;
11037;SDS011;5572;49.540;11.932;2023-04-03T01:38:45;3.93;;;3.50;;
11037;SDS011;5572;49.540;11.932;2023-04-03T01:41:12;3.70;;;3.40;;
11037;SDS011;5572;49.540;11.932;2023-04-03T01:43:39;3.97;;;3.67;;
11037;SDS011;5572;49.540;11.932;2023-04-03T01:46:05;6.03;;;3.80;;
11037;SDS011;5572;49.540;11.932;2023-04-03T01:48:32;5.10;;;3.70;;
11037;SDS011;5572;49.540;11.932;2023-04-03T01:51:01;3.63;;;3.43;;
11037;SDS011;5572;49.540;11.932;2023-04-03T01:53:27;3.73;;;3.33;;
11037;SDS011;5572;49.540;11.932;2023-04-03T01:55:54;4.43;;;4.03;;
11037;SDS011;5572;49.540;11.932;2023-04-03T01:58:20;3.80;;;3.60;;
11037;SDS011;5572;49.540;11.932;2023-04-03T02:00:47;3.50;;;3.30;;
11037;SDS011;5572;49.540;11.932;2023-04-03T02:03:13;5.77;;;5.30;;
11037;SDS011;5572;49.540;11.932;2023-04-03T02:05:41;5.17;;;4.67;;
11037;SDS011;5572;49.540;11.932;2023-04-03T02:08:08;4.17;;;3.83;;
11037;SDS011;5572;49.540;11.932;2023-04-03T02:10:35;6.00;;;5.40;;
11037;SDS011;5572;49.540;11.932;2023-04-03T02:13:02;3.60;;;3.40;;
11037;SDS011;5572;49.540;11.932;2023-04-03T02:15:29;3.40;;;3.17;;
11037;SDS011;5572;49.540;11.932;2023-04-03T02:17:55;4.67;;;4.03;;
11037;SDS011;5572;49.540;11.932;2023-04-03T02:20:22;4.07;;;3.70;;
11037;SDS011;5572;49.540;11.932;2023-04-03T02:22:48;4.20;;;3.80;;
11037;SDS011;5572;49.540;11.932;2023-04-03T02:25:16;3.40;;;3.20;;
11037;SDS011;5572;49.540;11.932;2023-04-03T02:27:43;3.80;;;3.50;;
11037;SDS011;5572;49.540;11.932;2023-04-03T02:30:10;3.37;;;3.17;;
11037;SDS011;5572;49.540;11.932;2023-04-03T02:32:37;3.80;;;3.50;;
11037;SDS011;5572;49.540;11.932;2023-04-03T02:35:05;3.47;;;3.27;;
11037;SDS011;5572;49.540;11.932;2023-04-03T02:37:32;4.20;;;3.90;;
11037;SDS011;5572;49.540;11.932;2023-04-03T02:39:58;3.60;;;3.30;;
11037;SDS011;5572;49.540;11.932;2023-04-03T06:57:08;3.73;;;3.50;;
11037;SDS011;5572;49.540;11.932;2023-04-03T06:59:35;4.47;;;4.17;;
11037;SDS011;5572;49.540;11.932;2023-04-03T07:02:02;5.17;;;4.50;;
11037;SDS011;5572;49.540;11.932;2023-04-03T07:04:29;4.30;;;4.00;;
11037;SDS011;5572;49.540;11.932;2023-04-03T07:06:56;6.13;;;4.60;;
11037;SDS011;5572;49.540;11.932;2023-04-03T07:09:22;7.33;;;5.07;;
11037;SDS011;5572;49.540;11.932;2023-04-03T07:11:49;5.03;;;4.57;;
11037;SDS011;5572;49.540;11.932;2023-04-03T07:14:17;3.70;;;3.50;;
11037;SDS011;5572;49.540;11.932;2023-04-03T07:16:44;5.07;;;4.63;;
11037;SDS011;5572;49.540;11.932;2023-04-03T07:19:10;4.40;;;4.00;;
11037;SDS011;5572;49.540;11.932;2023-04-03T07:21:37;4.70;;;4.40;;
11037;SDS011;5572;49.540;11.932;2023-04-03T07:24:05;4.30;;;4.00;;
11037;SDS011;5572;49.540;11.932;2023-04-03T07:26:32;5.43;;;4.93;;
11037;SDS011;5572;49.540;11.932;2023-04-03T07:28:59;7.30;;;6.23;;
11037;SDS011;5572;49.540;11.932;2023-04-03T07:31:27;6.23;;;5.23;;
11037;SDS011;5572;49.540;11.932;2023-04-03T07:33:54;3.80;;;3.60;;
11037;SDS011;5572;49.540;11.932;2023-04-03T08:44:24;5.27;;;4.97;;
11037;SDS011;5572;49.540;11.932;2023-04-03T08:47:03;6.37;;;5.87;;
11037;SDS011;5572;49.540;11.932;2023-04-03T08:49:39;7.03;;;6.60;;
11037;SDS011;5572;49.540;11.932;2023-04-03T09:02:12;7.47;;;6.83;;
11037;SDS011;5572;49.540;11.932;2023-04-03T09:04:55;7.47;;;6.83;;
11037;SDS011;5572;49.540;11.932;2023-04-03T09:07:25;6.97;;;6.47;;
11037;SDS011;5572;49.540;11.932;2023-04-03T09:10:05;6.50;;;6.10;;
11037;SDS011;5572;49.540;11.932;2023-04-03T09:19:32;7.17;;;6.77;;
11037;SDS011;5572;49.540;11.932;2023-04-03T09:22:16;7.30;;;6.80;;
11037;SDS011;5572;49.540;11.932;2023-04-03T09:24:49;6.10;;;5.90;;
11037;SDS011;5572;49.540;11.932;2023-04-03T09:27:22;7.03;;;6.73;;
11037;SDS011;5572;49.540;11.932;2023-04-03T09:29:49;7.90;;;7.30;;
11037;SDS011;5572;49.540;11.932;2023-04-03T09:32:21;6.70;;;6.40;;
11037;SDS011;5572;49.540;11.932;2023-04-03T09:34:55;7.13;;;6.83;;
11037;SDS011;5572;49.540;11.932;2023-04-03T09:37:36;7.00;;;6.60;;
11037;SDS011;5572;49.540;11.932;2023-04-03T09:40:27;7.13;;;6.63;;
11037;SDS011;5572;49.540;11.932;2023-04-03T09:43:02;6.70;;;6.40;;
11037;SDS011;5572;49.540;11.932;2023-04-03T09:45:46;6.37;;;6.03;;
11037;SDS011;5572;49.540;11.932;2023-04-03T09:48:16;6.83;;;6.40;;
11037;SDS011;5572;49.540;11.932;2023-04-03T09:50:56;7.77;;;7.27;;
11037;SDS011;5572;49.540;11.932;2023-04-03T09:53:29;7.03;;;6.63;;
11037;SDS011;5572;49.540;11.932;2023-04-03T09:56:03;7.20;;;6.70;;
11037;SDS011;5572;49.540;11.932;2023-04-03T09:58:46;7.60;;;7.00;;
11037;SDS011;5572;49.540;11.932;2023-04-03T10:01:26;7.13;;;6.63;;
11037;SDS011;5572;49.540;11.932;2023-04-03T10:04:13;6.57;;;6.27;;
11037;SDS011;5572;49.540;11.932;2023-04-03T10:06:44;6.83;;;6.43;;
11037;SDS011;5572;49.540;11.932;2023-04-03T10:09:17;7.60;;;7.10;;
11037;SDS011;5572;49.540;11.932;2023-04-03T10:12:03;6.60;;;6.40;;
11037;SDS011;5572;49.540;11.932;2023-04-03T10:15:02;7.37;;;7.03;;
11037;SDS011;5572;49.540;11.932;2023-04-03T10:18:29;7.70;;;7.10;;
11037;SDS011;5572;49.540;11.932;2023-04-03T10:21:09;7.63;;;7.23;;
11037;SDS011;5572;49.540;11.932;2023-04-03T10:27:25;7.97;;;7.47;;
11037;SDS011;5572;49.540;11.932;2023-04-03T10:30:57;8.07;;;7.57;;
11037;SDS011;5572;49.540;11.932;2023-04-03T10:33:37;7.83;;;7.43;;
11037;SDS011;5572;49.540;11.932;2023-04-03T10:36:17;7.90;;;7.40;;
11037;SDS011;5572;49.540;11.932;2023-04-03T10:42:21;7.27;;;6.97;;
11037;SDS011;5572;49.540;11.932;2023-04-03T10:45:17;7.30;;;6.90;;
11037;SDS011;5572;49.540;11.932;2023-04-03T10:47:53;7.67;;;7.27;;
11037;SDS011;5572;49.540;11.932;2023-04-03T10:50:31;7.60;;;7.20;;
11037;SDS011;5572;49.540;11.932;2023-04-03T10:53:12;6.90;;;6.50;;
11037;SDS011;5572;49.540;11.932;2023-04-03T10:55:50;7.40;;;7.00;;
11037;SDS011;5572;49.540;11.932;2023-04-03T10:58:26;7.60;;;7.20;;
11037;SDS011;5572;49.540;11.932;2023-04-03T11:00:59;7.60;;;7.20;;
11037;SDS011;5572;49.540;11.932;2023-04-03T11:03:34;7.50;;;7.10;;
11037;SDS011;5572;49.540;11.932;2023-04-03T11:06:06;7.57;;;7.17;;
11037;SDS011;5572;49.540;11.932;2023-04-03T11:08:42;7.40;;;6.90;;
11037;SDS011;5572;49.540;11.932;2023-04-03T11:11:15;7.73;;;7.33;;
11037;SDS011;5572;49.540;11.932;2023-04-03T11:17:04;7.37;;;6.97;;
11037;SDS011;5572;49.540;11.932;2023-04-03T11:19:39;7.07;;;6.77;;
11037;SDS011;5572;49.540;11.932;2023-04-03T11:22:13;7.50;;;7.00;;
11037;SDS011;5572;49.540;11.932;2023-04-03T11:24:51;7.30;;;6.90;;
11037;SDS011;5572;49.540;11.932;2023-04-03T11:27:25;7.00;;;6.70;;
11037;SDS011;5572;49.540;11.932;2023-04-03T11:29:59;8.43;;;7.80;;
11037;SDS011;5572;49.540;11.932;2023-04-03T11:32:38;7.07;;;6.67;;
11037;SDS011;5572;49.540;11.932;2023-04-03T11:35:32;7.43;;;7.03;;
11037;SDS011;5572;49.540;11.932;2023-04-03T11:38:17;10.73;;;7.40;;
11037;SDS011;5572;49.540;11.932;2023-04-03T11:41:16;7.07;;;6.73;;
11037;SDS011;5572;49.540;11.932;2023-04-03T11:53:33;8.60;;;7.93;;
11037;SDS011;5572;49.540;11.932;2023-04-03T11:59:23;8.20;;;7.70;;
11037;SDS011;5572;49.540;11.932;2023-04-03T12:01:57;8.40;;;8.00;;
11037;SDS011;5572;49.540;11.932;2023-04-03T12:04:27;8.60;;;8.10;;
11037;SDS011;5572;49.540;11.932;2023-04-03T12:07:08;8.20;;;7.80;;
11037;SDS011;5572;49.540;11.932;2023-04-03T12:12:30;8.83;;;8.20;;
11037;SDS011;5572;49.540;11.932;2023-04-03T12:15:22;8.30;;;7.90;;
11037;SDS011;5572;49.540;11.932;2023-04-03T12:17:52;8.43;;;7.83;;
11037;SDS011;5572;49.540;11.932;2023-04-03T12:23:27;8.17;;;7.77;;
11037;SDS011;5572;49.540;11.932;2023-04-03T12:26:01;8.10;;;7.70;;
11037;SDS011;5572;49.540;11.932;2023-04-03T12:28:40;7.50;;;7.10;;
11037;SDS011;5572;49.540;11.932;2023-04-03T12:31:10;8.47;;;7.97;;
11037;SDS011;5572;49.540;11.932;2023-04-03T12:33:45;8.10;;;7.80;;
11037;SDS011;5572;49.540;11.932;2023-04-03T12:36:33;7.90;;;7.50;;
11037;SDS011;5572;49.540;11.932;2023-04-03T12:42:20;7.80;;;7.40;;
11037;SDS011;5572;49.540;11.932;2023-04-03T12:45:08;7.63;;;7.30;;
11037;SDS011;5572;49.540;11.932;2023-04-03T12:47:43;8.07;;;7.67;;
11037;SDS011;5572;49.540;11.932;2023-04-03T12:50:21;8.33;;;7.93;;
11037;SDS011;5572;49.540;11.932;2023-04-03T12:52:59;10.73;;;9.80;;
11037;SDS011;5572;49.540;11.932;2023-04-03T12:55:32;8.33;;;7.93;;
11037;SDS011;5572;49.540;11.932;2023-04-03T13:00:59;9.03;;;8.20;;
11037;SDS011;5572;49.540;11.932;2023-04-03T13:03:27;7.90;;;7.50;;
11037;SDS011;5572;49.540;11.932;2023-04-03T13:05:56;8.20;;;7.60;;
11037;SDS011;5572;49.540;11.932;2023-04-03T13:08:27;8.03;;;7.63;;
11037;SDS011;5572;49.540;11.932;2023-04-03T13:10:55;8.07;;;7.57;;
11037;SDS011;5572;49.540;11.932;2023-04-03T13:13:25;8.30;;;7.90;;
11037;SDS011;5572;49.540;11.932;2023-04-03T13:15:51;8.13;;;7.70;;
11037;SDS011;5572;49.540;11.932;2023-04-03T13:18:23;8.30;;;7.80;;
11037;SDS011;5572;49.540;11.932;2023-04-03T13:20:51;7.63;;;7.23;;
11037;SDS011;5572;49.540;11.932;2023-04-03T13:23:19;8.27;;;7.87;;
11037;SDS011;5572;49.540;11.932;2023-04-03T13:25:49;8.77;;;8.27;;
11037;SDS011;5572;49.540;11.932;2023-04-03T13:28:18;7.77;;;7.47;;
11037;SDS011;5572;49.540;11.932;2023-04-03T13:30:59;8.43;;;7.73;;
11037;SDS011;5572;49.540;11.932;2023-04-03T13:33:29;8.40;;;8.00;;
11037;SDS011;5572;49.540;11.932;2023-04-03T13:35:59;8.53;;;8.13;;
11037;SDS011;5572;49.540;11.932;2023-04-03T13:38:29;8.87;;;8.47;;
11037;SDS011;5572;49.540;11.932;2023-04-03T13:41:01;8.57;;;7.97;;
11037;SDS011;5572;49.540;11.932;2023-04-03T13:43:30;9.00;;;8.50;;
11037;SDS011;5572;49.540;11.932;2023-04-03T13:45:59;9.13;;;8.63;;
11037;SDS011;5572;49.540;11.932;2023-04-03T13:48:34;9.03;;;8.63;;
11037;SDS011;5572;49.540;11.932;2023-04-03T13:51:03;9.20;;;8.70;;
11037;SDS011;5572;49.540;11.932;2023-04-03T13:53:33;9.13;;;8.63;;
11037;SDS011;5572;49.540;11.932;2023-04-03T13:56:13;8.63;;;8.23;;
11037;SDS011;5572;49.540;11.932;2023-04-03T13:58:52;8.27;;;7.87;;
11037;SDS011;5572;49.540;11.932;2023-04-03T14:01:21;9.17;;;8.67;;
11037;SDS011;5572;49.540;11.932;2023-04-03T14:03:52;9.33;;;8.83;;
11037;SDS011;5572;49.540;11.932;2023-04-03T14:06:20;8.90;;;8.40;;
11037;SDS011;5572;49.540;11.932;2023-04-03T14:08:47;8.97;;;8.57;;
11037;SDS011;5572;49.540;11.932;2023-04-03T14:11:16;9.20;;;8.60;;
11037;SDS011;5572;49.540;11.932;2023-04-03T14:13:46;9.47;;;8.87;;
11037;SDS011;5572;49.540;11.932;2023-04-03T14:16:13;10.20;;;9.20;;
11037;SDS011;5572;49.540;11.932;2023-04-03T14:18:42;9.37;;;8.70;;
11037;SDS011;5572;49.540;11.932;2023-04-03T14:21:10;8.23;;;7.83;;
11037;SDS011;5572;49.540;11.932;2023-04-03T14:23:38;8.90;;;8.40;;
11037;SDS011;5572;49.540;11.932;2023-04-03T14:26:08;8.30;;;7.90;;
11037;SDS011;5572;49.540;11.932;2023-04-03T14:28:39;8.73;;;8.17;;
11037;SDS011;5572;49.540;11.932;2023-04-03T14:31:06;8.70;;;8.20;;
11037;SDS011;5572;49.540;11.932;2023-04-03T14:33:33;8.70;;;8.30;;
11037;SDS011;5572;49.540;11.932;2023-04-03T14:36:00;8.80;;;8.10;;
11037;SDS011;5572;49.540;11.932;2023-04-03T14:38:29;8.33;;;7.70;;
11037;SDS011;5572;49.540;11.932;2023-04-03T14:40:57;8.13;;;7.73;;
11037;SDS011;5572;49.540;11.932;2023-04-03T14:43:24;8.97;;;8.17;;
11037;SDS011;5572;49.540;11.932;2023-04-03T14:45:52;8.97;;;8.47;;
11037;SDS011;5572;49.540;11.932;2023-04-03T14:48:20;19.30;;;14.33;;
11037;SDS011;5572;49.540;11.932;2023-04-03T14:50:48;8.43;;;8.00;;
11037;SDS011;5572;49.540;11.932;2023-04-03T14:53:17;8.37;;;7.97;;
11037;SDS011;5572;49.540;11.932;2023-04-03T14:55:48;9.30;;;8.70;;
11037;SDS011;5572;49.540;11.932;2023-04-03T14:58:16;9.03;;;8.53;;
11037;SDS011;5572;49.540;11.932;2023-04-03T15:00:45;8.93;;;8.20;;
11037;SDS011;5572;49.540;11.932;2023-04-03T15:03:14;10.47;;;9.77;;
11037;SDS011;5572;49.540;11.932;2023-04-03T15:05:41;8.63;;;8.17;;
11037;SDS011;5572;49.540;11.932;2023-04-03T15:08:19;9.40;;;8.70;;
11037;SDS011;5572;49.540;11.932;2023-04-03T15:10:48;8.70;;;8.20;;
11037;SDS011;5572;49.540;11.932;2023-04-03T15:13:17;8.30;;;7.70;;
11037;SDS011;5572;49.540;11.932;2023-04-03T15:15:45;8.90;;;8.40;;
11037;SDS011;5572;49.540;11.932;2023-04-03T15:18:15;8.13;;;7.73;;
11037;SDS011;5572;49.540;11.932;2023-04-03T15:20:44;8.23;;;7.43;;
11037;SDS011;5572;49.540;11.932;2023-04-03T15:23:11;8.10;;;7.70;;
11037;SDS011;5572;49.540;11.932;2023-04-03T15:25:40;8.67;;;8.17;;
11037;SDS011;5572;49.540;11.932;2023-04-03T15:28:08;8.60;;;8.20;;
11037;SDS011;5572;49.540;11.932;2023-04-03T15:30:37;8.63;;;8.13;;
11037;SDS011;5572;49.540;11.932;2023-04-03T15:33:05;8.67;;;8.07;;
11037;SDS011;5572;49.540;11.932;2023-04-03T15:35:33;8.83;;;8.23;;
11037;SDS011;5572;49.540;11.932;2023-04-03T15:38:00;8.30;;;7.90;;
11037;SDS011;5572;49.540;11.932;2023-04-03T15:40:26;8.03;;;7.63;;
11037;SDS011;5572;49.540;11.932;2023-04-03T15:42:53;8.80;;;8.30;;
11037;SDS011;5572;49.540;11.932;2023-04-03T15:45:20;8.53;;;8.13;;
11037;SDS011;5572;49.540;11.932;2023-04-03T15:47:47;9.73;;;9.07;;
11037;SDS011;5572;49.540;11.932;2023-04-03T15:50:13;8.57;;;8.07;;
11037;SDS011;5572;49.540;11.932;2023-04-03T15:52:41;8.80;;;8.00;;
11037;SDS011;5572;49.540;11.932;2023-04-03T15:55:08;8.10;;;7.70;;
11037;SDS011;5572;49.540;11.932;2023-04-03T15:57:35;7.97;;;7.47;;
11037;SDS011;5572;49.540;11.932;2023-04-03T16:00:02;9.43;;;7.87;;
11037;SDS011;5572;49.540;11.932;2023-04-03T16:02:30;8.37;;;7.87;;
11037;SDS011;5572;49.540;11.932;2023-04-03T16:04:57;8.30;;;7.90;;
11037;SDS011;5572;49.540;11.932;2023-04-03T16:07:23;8.67;;;8.17;;
11037;SDS011;5572;49.540;11.932;2023-04-03T16:09:51;8.47;;;7.90;;
11037;SDS011;5572;49.540;11.932;2023-04-03T16:12:18;7.73;;;7.33;;
11037;SDS011;5572;49.540;11.932;2023-04-03T16:14:45;9.07;;;8.43;;
11037;SDS011;5572;49.540;11.932;2023-04-03T16:17:11;8.13;;;7.63;;
11037;SDS011;5572;49.540;11.932;2023-04-03T16:19:38;8.30;;;7.90;;
11037;SDS011;5572;49.540;11.932;2023-04-03T16:22:05;8.40;;;7.90;;
11037;SDS011;5572;49.540;11.932;2023-04-03T16:24:31;9.23;;;8.40;;
11037;SDS011;5572;49.540;11.932;2023-04-03T16:26:59;8.10;;;7.70;;
11037;SDS011;5572;49.540;11.932;2023-04-03T16:29:26;8.90;;;8.30;;
11037;SDS011;5572;49.540;11.932;2023-04-03T16:31:53;8.10;;;7.70;;
11037;SDS011;5572;49.540;11.932;2023-04-03T16:34:20;7.90;;;7.50;;
11037;SDS011;5572;49.540;11.932;2023-04-03T16:36:46;8.20;;;7.70;;
11037;SDS011;5572;49.540;11.932;2023-04-03T16:39:13;8.30;;;7.80;;
11037;SDS011;5572;49.540;11.932;2023-04-03T16:41:41;8.40;;;7.90;;
11037;SDS011;5572;49.540;11.932;2023-04-03T16:44:10;8.63;;;8.00;;
11037;SDS011;5572;49.540;11.932;2023-04-03T16:46:37;8.40;;;7.83;;
11037;SDS011;5572;49.540;11.932;2023-04-03T16:49:03;9.23;;;8.53;;
11037;SDS011;5572;49.540;11.932;2023-04-03T16:51:30;7.63;;;7.23;;
11037;SDS011;5572;49.540;11.932;2023-04-03T16:53:56;8.00;;;7.60;;
11037;SDS011;5572;49.540;11.932;2023-04-03T16:56:23;8.00;;;7.53;;
11037;SDS011;5572;49.540;11.932;2023-04-03T16:58:51;9.03;;;8.07;;
11037;SDS011;5572;49.540;11.932;2023-04-03T17:01:20;8.47;;;7.77;;
11037;SDS011;5572;49.540;11.932;2023-04-03T17:03:47;7.23;;;6.93;;
11037;SDS011;5572;49.540;11.932;2023-04-03T17:06:15;9.00;;;8.50;;
11037;SDS011;5572;49.540;11.932;2023-04-03T17:08:44;8.33;;;7.77;;
11037;SDS011;5572;49.540;11.932;2023-04-03T17:11:11;7.30;;;7.00;;
11037;SDS011;5572;49.540;11.932;2023-04-03T17:13:38;8.67;;;8.13;;
11037;SDS011;5572;49.540;11.932;2023-04-03T17:16:06;8.37;;;7.80;;
11037;SDS011;5572;49.540;11.932;2023-04-03T17:18:36;7.73;;;7.33;;
11037;SDS011;5572;49.540;11.932;2023-04-03T17:21:03;8.20;;;7.70;;
11037;SDS011;5572;49.540;11.932;2023-04-03T17:23:31;8.03;;;7.53;;
11037;SDS011;5572;49.540;11.932;2023-04-03T17:25:59;8.20;;;7.37;;
11037;SDS011;5572;49.540;11.932;2023-04-03T17:28:27;8.77;;;8.07;;
11037;SDS011;5572;49.540;11.932;2023-04-03T17:30:53;6.90;;;6.57;;
11037;SDS011;5572;49.540;11.932;2023-04-03T17:33:20;7.10;;;6.80;;
11037;SDS011;5572;49.540;11.932;2023-04-03T17:35:50;18.37;;;10.13;;
11037;SDS011;5572;49.540;11.932;2023-04-03T17:38:17;7.87;;;7.23;;
11037;SDS011;5572;49.540;11.932;2023-04-03T17:40:44;7.63;;;7.10;;
11037;SDS011;5572;49.540;11.932;2023-04-03T17:43:11;6.87;;;6.40;;
11037;SDS011;5572;49.540;11.932;2023-04-03T17:45:40;7.10;;;6.60;;
11037;SDS011;5572;49.540;11.932;2023-04-03T17:48:07;6.50;;;6.20;;
11037;SDS011;5572;49.540;11.932;2023-04-03T17:50:34;5.83;;;5.63;;
11037;SDS011;5572;49.540;11.932;2023-04-03T17:53:04;7.30;;;6.80;;
11037;SDS011;5572;49.540;11.932;2023-04-03T17:55:30;6.60;;;6.20;;
11037;SDS011;5572;49.540;11.932;2023-04-03T17:57:57;6.90;;;6.40;;
11037;SDS011;5572;49.540;11.932;2023-04-03T18:00:23;7.50;;;6.63;;
11037;SDS011;5572;49.540;11.932;2023-04-03T18:02:51;6.77;;;6.37;;
11037;SDS011;5572;49.540;11.932;2023-04-03T18:05:19;6.23;;;5.83;;
11037;SDS011;5572;49.540;11.932;2023-04-03T18:07:45;7.30;;;6.67;;
11037;SDS011;5572;49.540;11.932;2023-04-03T18:10:14;6.33;;;6.03;;
11037;SDS011;5572;49.540;11.932;2023-04-03T18:12:41;6.30;;;6.00;;
11037;SDS011;5572;49.540;11.932;2023-04-03T18:15:09;6.67;;;6.27;;
11037;SDS011;5572;49.540;11.932;2023-04-03T18:17:36;6.67;;;6.27;;
11037;SDS011;5572;49.540;11.932;2023-04-03T18:20:03;7.10;;;5.75;;
11037;SDS011;5572;49.540;11.932;2023-04-03T18:22:31;6.60;;;6.17;;
11037;SDS011;5572;49.540;11.932;2023-04-03T18:24:59;6.80;;;6.20;;
11037;SDS011;5572;49.540;11.932;2023-04-03T18:27:27;5.53;;;5.33;;
11037;SDS011;5572;49.540;11.932;2023-04-03T18:29:54;7.10;;;6.50;;
11037;SDS011;5572;49.540;11.932;2023-04-03T18:32:25;10.10;;;6.87;;
11037;SDS011;5572;49.540;11.932;2023-04-03T18:34:52;17.00;;;9.40;;
11037;SDS011;5572;49.540;11.932;2023-04-03T18:37:19;6.77;;;6.20;;
11037;SDS011;5572;49.540;11.932;2023-04-03T18:39:47;21.47;;;9.80;;
11037;SDS011;5572;49.540;11.932;2023-04-03T18:42:15;7.13;;;6.47;;
11037;SDS011;5572;49.540;11.932;2023-04-03T18:44:47;6.40;;;6.10;;
11037;SDS011;5572;49.540;11.932;2023-04-03T18:47:17;6.30;;;5.90;;
11037;SDS011;5572;49.540;11.932;2023-04-03T18:49:44;7.03;;;6.53;;
11037;SDS011;5572;49.540;11.932;2023-04-03T18:52:11;6.60;;;6.20;;
11037;SDS011;5572;49.540;11.932;2023-04-03T18:54:38;6.43;;;6.07;;
11037;SDS011;5572;49.540;11.932;2023-04-03T18:57:06;6.67;;;6.27;;
11037;SDS011;5572;49.540;11.932;2023-04-03T18:59:33;6.80;;;6.30;;
11037;SDS011;5572;49.540;11.932;2023-04-03T19:02:01;8.90;;;7.60;;
11037;SDS011;5572;49.540;11.932;2023-04-03T19:04:29;6.50;;;6.10;;
11037;SDS011;5572;49.540;11.932;2023-04-03T19:06:56;5.73;;;5.53;;
11037;SDS011;5572;49.540;11.932;2023-04-03T19:09:28;6.40;;;5.90;;
11037;SDS011;5572;49.540;11.932;2023-04-03T19:11:58;6.27;;;5.87;;
11037;SDS011;5572;49.540;11.932;2023-04-03T19:14:28;5.93;;;5.63;;
11037;SDS011;5572;49.540;11.932;2023-04-03T19:17:07;6.57;;;5.97;;
11037;SDS011;5572;49.540;11.932;2023-04-03T19:19:34;6.93;;;6.37;;
11037;SDS011;5572;49.540;11.932;2023-04-03T19:22:01;6.27;;;5.80;;
11037;SDS011;5572;49.540;11.932;2023-04-03T19:24:28;6.40;;;6.10;;
11037;SDS011;5572;49.540;11.932;2023-04-03T19:26:54;6.50;;;6.10;;
11037;SDS011;5572;49.540;11.932;2023-04-03T19:29:22;5.50;;;5.30;;
11037;SDS011;5572;49.540;11.932;2023-04-03T19:31:48;6.70;;;6.30;;
11037;SDS011;5572;49.540;11.932;2023-04-03T19:34:18;6.57;;;5.97;;
11037;SDS011;5572;49.540;11.932;2023-04-03T19:36:45;6.20;;;5.90;;
11037;SDS011;5572;49.540;11.932;2023-04-03T19:39:15;5.50;;;5.30;;
11037;SDS011;5572;49.540;11.932;2023-04-03T19:41:42;6.23;;;5.83;;
11037;SDS011;5572;49.540;11.932;2023-04-03T19:44:10;8.10;;;5.83;;
11037;SDS011;5572;49.540;11.932;2023-04-03T19:46:37;5.63;;;5.43;;
11037;SDS011;5572;49.540;11.932;2023-04-03T19:49:03;6.00;;;5.60;;
11037;SDS011;5572;49.540;11.932;2023-04-03T19:51:32;6.67;;;6.07;;
11037;SDS011;5572;49.540;11.932;2023-04-03T19:53:58;5.30;;;5.10;;
11037;SDS011;5572;49.540;11.932;2023-04-03T19:56:25;5.73;;;5.40;;
11037;SDS011;5572;49.540;11.932;2023-04-03T19:58:52;5.60;;;5.30;;
11037;SDS011;5572;49.540;11.932;2023-04-03T20:01:19;6.00;;;5.50;;
11037;SDS011;5572;49.540;11.932;2023-04-03T20:03:46;5.70;;;5.30;;
11037;SDS011;5572;49.540;11.932;2023-04-03T20:06:13;7.73;;;5.70;;
11037;SDS011;5572;49.540;11.932;2023-04-03T20:08:42;6.30;;;5.80;;
11037;SDS011;5572;49.540;11.932;2023-04-03T20:11:08;5.90;;;5.60;;
11037;SDS011;5572;49.540;11.932;2023-04-03T20:13:35;6.60;;;6.20;;
11037;SDS011;5572;49.540;11.932;2023-04-03T20:16:03;6.07;;;5.77;;
11037;SDS011;5572;49.540;11.932;2023-04-03T20:18:30;7.40;;;6.10;;
11037;SDS011;5572;49.540;11.932;2023-04-03T20:20:58;6.27;;;5.97;;
11037;SDS011;5572;49.540;11.932;2023-04-03T20:23:27;6.10;;;5.80;;
11037;SDS011;5572;49.540;11.932;2023-04-03T20:25:56;6.10;;;5.70;;
11037;SDS011;5572;49.540;11.932;2023-04-03T20:28:24;5.70;;;5.40;;
11037;SDS011;5572;49.540;11.932;2023-04-03T20:30:52;6.50;;;5.93;;
11037;SDS011;5572;49.540;11.932;2023-04-03T20:33:19;5.93;;;5.63;;
11037;SDS011;5572;49.540;11.932;2023-04-03T20:35:46;5.60;;;5.40;;
11037;SDS011;5572;49.540;11.932;2023-04-03T20:38:13;6.40;;;6.00;;
11037;SDS011;5572;49.540;11.932;2023-04-03T20:40:40;6.37;;;5.77;;
11037;SDS011;5572;49.540;11.932;2023-04-03T21:19:13;5.43;;;5.07;;
11037;SDS011;5572;49.540;11.932;2023-04-03T21:21:40;5.90;;;5.50;;
11037;SDS011;5572;49.540;11.932;2023-04-03T21:24:10;4.87;;;4.67;;
11037;SDS011;5572;49.540;11.932;2023-04-03T21:26:38;28.65;;;26.00;;
